Time;durP1;ratioP1;P1;durP2;ratioP2;P2;SDS_P1;SDS_P2;PMS_P1;PMS_P2;Temp;Humidity;BMP_temperature;BMP_pressure;BME280_temperature;BME280_humidity;BME280_pressure;Samples;Min_cycle;Max_cycle;Signal;HPM_P1;HPM_P2
2022/04/29 00:00:39;;;;;;;3.25;2.30;;;12.30;78.60;;;;;;5017449;28;20026;-93
2022/04/29 00:03:09;;;;;;;3.45;2.65;;;12.20;78.10;;;;;;5018665;28;20057;-93
2022/04/29 00:05:35;;;;;;;;;;;12.20;78.10;;;;;;5018213;28;20029;-93
2022/04/29 00:08:05;;;;;;;3.72;2.60;;;12.20;77.30;;;;;;5018119;28;19952;-94
2022/04/29 00:10:32;;;;;;;5.18;2.40;;;12.20;78.40;;;;;;4995592;28;20068;-93
2022/04/29 00:13:01;;;;;;;3.67;2.40;;;12.20;78.60;;;;;;4994841;28;20030;-93
2022/04/29 00:15:28;;;;;;;3.75;2.40;;;12.10;79.80;;;;;;4994714;28;20117;-93
2022/04/29 00:17:54;;;;;;;3.95;2.42;;;12.10;78.90;;;;;;4994744;28;20026;-94
2022/04/29 00:20:20;;;;;;;3.33;2.50;;;12.10;79.10;;;;;;4994666;28;20089;-93
2022/04/29 00:22:46;;;;;;;3.10;2.30;;;12.10;78.10;;;;;;4994500;28;20433;-94
2022/04/29 00:25:12;;;;;;;2.55;2.10;;;12.10;78.20;;;;;;4994865;28;20029;-93
2022/04/29 00:27:40;;;;;;;3.30;2.45;;;12.10;78.50;;;;;;4994321;28;20034;-94
2022/04/29 00:30:10;;;;;;;4.97;2.80;;;12.10;79.10;;;;;;4994269;28;20080;-94
2022/04/29 00:32:37;;;;;;;3.33;2.80;;;12.10;79.80;;;;;;4994292;28;20026;-94
2022/04/29 00:35:04;;;;;;;5.10;2.80;;;12.10;80.10;;;;;;4994544;28;20373;-93
2022/04/29 00:37:30;;;;;;;4.53;2.90;;;12.00;80.40;;;;;;4994517;28;20493;-94
2022/04/29 00:39:56;;;;;;;3.88;2.60;;;12.00;80.60;;;;;;4994813;28;20030;-93
2022/04/29 00:42:22;;;;;;;3.63;2.63;;;12.00;80.60;;;;;;4994374;28;20033;-93
2022/04/29 00:44:49;;;;;;;4.00;2.80;;;12.00;81.20;;;;;;4994222;28;20018;-93
2022/04/29 00:47:17;;;;;;;5.55;2.60;;;12.00;81.40;;;;;;4994504;28;20084;-94
2022/04/29 00:49:43;;;;;;;5.05;2.67;;;12.00;82.50;;;;;;4994175;28;20030;-92
2022/04/29 00:52:16;;;;;;;6.78;2.63;;;12.00;82.70;;;;;;4994128;28;20058;-93
2022/04/29 00:54:59;;;;;;;6.10;3.00;;;11.90;82.80;;;;;;4994263;28;20034;-94
2022/04/29 00:57:30;;;;;;;4.13;2.58;;;11.90;82.40;;;;;;4993915;28;20053;-94
2022/04/29 01:00:05;;;;;;;4.05;2.50;;;11.90;81.00;;;;;;4994133;28;20429;-93
2022/04/29 01:02:32;;;;;;;5.18;2.53;;;11.90;79.90;;;;;;4993908;28;20057;-94
2022/04/29 01:05:06;;;;;;;4.88;3.03;;;11.90;79.80;;;;;;4993989;28;20018;-94
2022/04/29 01:07:34;;;;;;;3.17;2.88;;;11.90;80.10;;;;;;4995594;28;20030;-93
2022/04/29 01:10:00;;;;;;;4.97;2.80;;;11.90;80.60;;;;;;4993821;28;20054;-93
2022/04/29 01:12:27;;;;;;;3.90;2.35;;;11.90;80.60;;;;;;4993903;28;20034;-94
2022/04/29 01:14:55;;;;;;;4.63;2.58;;;11.80;80.40;;;;;;4994080;28;20541;-93
2022/04/29 01:17:21;;;;;;;3.60;2.80;;;11.80;79.10;;;;;;4993719;28;20041;-93
2022/04/29 01:19:47;;;;;;;4.55;2.63;;;11.70;78.10;;;;;;4993919;28;20022;-93
2022/04/29 01:22:13;;;;;;;3.75;2.60;;;11.70;77.70;;;;;;4993803;28;20061;-94
2022/04/29 01:24:38;;;;;;;4.97;2.60;;;11.70;77.20;;;;;;4993739;28;20042;-95
2022/04/29 01:27:11;;;;;;;2.60;2.20;;;11.70;76.30;;;;;;4993734;28;20105;-94
2022/04/29 01:29:41;;;;;;;3.75;2.58;;;11.70;76.10;;;;;;4993804;28;20469;-94
2022/04/29 01:32:09;;;;;;;5.32;2.78;;;11.60;76.10;;;;;;4993731;28;20408;-93
2022/04/29 01:34:35;;;;;;;4.18;2.67;;;11.60;76.10;;;;;;4993881;28;20118;-93
2022/04/29 01:37:01;;;;;;;4.65;2.60;;;11.50;76.30;;;;;;4993576;28;20089;-94
2022/04/29 01:39:27;;;;;;;5.28;2.50;;;11.50;76.70;;;;;;4993782;28;20501;-94
2022/04/29 01:41:52;;;;;;;6.22;3.03;;;11.50;77.10;;;;;;4993870;28;20057;-93
2022/04/29 01:44:18;;;;;;;3.97;2.65;;;11.40;77.30;;;;;;4993787;28;20045;-94
2022/04/29 01:46:44;;;;;;;6.45;2.72;;;11.50;77.80;;;;;;4993740;28;20030;-93
2022/04/29 01:49:10;;;;;;;4.45;2.60;;;11.40;78.20;;;;;;4993485;28;20026;-93
2022/04/29 01:51:35;;;;;;;6.13;2.50;;;11.40;78.10;;;;;;4993485;28;20393;-93
2022/04/29 01:54:01;;;;;;;6.07;2.60;;;11.40;78.00;;;;;;4993243;28;20126;-94
2022/04/29 01:56:33;;;;;;;2.72;2.38;;;11.40;78.10;;;;;;4993304;28;20033;-93
2022/04/29 01:59:00;;;;;;;6.63;2.78;;;11.40;78.20;;;;;;4994477;28;20332;-94
2022/04/29 02:01:27;;;;;;;3.80;2.72;;;11.40;77.90;;;;;;4993276;28;20528;-94
2022/04/29 02:03:54;;;;;;;7.82;3.08;;;11.40;78.00;;;;;;4993277;28;20026;-94
2022/04/29 02:06:20;;;;;;;3.65;2.70;;;11.40;78.00;;;;;;4993178;28;20041;-94
2022/04/29 02:08:46;;;;;;;5.50;2.78;;;11.40;78.10;;;;;;4993152;28;20108;-93
2022/04/29 02:11:12;;;;;;;5.43;2.90;;;11.40;78.00;;;;;;4993149;28;20117;-94
2022/04/29 02:13:38;;;;;;;3.55;2.50;;;11.40;77.90;;;;;;4993234;28;20034;-93
2022/04/29 02:16:05;;;;;;;5.10;3.00;;;11.40;77.90;;;;;;4993263;28;20026;-94
2022/04/29 02:18:31;;;;;;;5.38;3.22;;;11.40;77.90;;;;;;4993132;28;20109;-94
2022/04/29 02:20:57;;;;;;;7.68;3.25;;;11.30;77.90;;;;;;4993490;28;20035;-93
2022/04/29 02:23:22;;;;;;;6.80;2.92;;;11.40;77.90;;;;;;4994164;28;20073;-94
2022/04/29 02:25:48;;;;;;;4.90;2.80;;;11.40;77.80;;;;;;4996610;28;20057;-93
2022/04/29 02:28:14;;;;;;;3.60;2.65;;;11.30;77.50;;;;;;4996570;28;20441;-93
2022/04/29 02:30:40;;;;;;;3.25;2.70;;;11.40;77.80;;;;;;4996923;28;20026;-93
2022/04/29 02:33:07;;;;;;;3.63;2.78;;;11.40;78.20;;;;;;4996481;28;20026;-94
2022/04/29 02:35:33;;;;;;;5.07;2.95;;;11.40;78.30;;;;;;4996366;28;20466;-93
2022/04/29 02:37:59;;;;;;;4.78;2.67;;;11.40;78.00;;;;;;4996474;28;20022;-94
2022/04/29 02:40:24;;;;;;;4.50;2.28;;;11.30;78.30;;;;;;4996263;28;20023;-94
2022/04/29 02:42:50;;;;;;;3.42;2.58;;;11.40;78.70;;;;;;4996476;28;20018;-94
2022/04/29 02:45:17;;;;;;;4.47;2.72;;;11.40;79.00;;;;;;4996417;28;20027;-94
2022/04/29 02:47:42;;;;;;;5.47;3.05;;;11.30;78.90;;;;;;4996547;28;20026;-95
2022/04/29 02:50:09;;;;;;;3.50;2.75;;;11.30;78.50;;;;;;4997477;28;20370;-93
2022/04/29 02:52:34;;;;;;;5.30;2.90;;;11.30;78.80;;;;;;4996236;28;20022;-94
2022/04/29 02:55:00;;;;;;;4.72;2.85;;;11.30;78.40;;;;;;4996282;28;20027;-93
2022/04/29 02:57:27;;;;;;;5.72;2.85;;;11.40;79.10;;;;;;4996167;28;20029;-92
2022/04/29 02:59:52;;;;;;;5.05;3.20;;;11.30;78.40;;;;;;4996149;28;20029;-93
2022/04/29 03:02:18;;;;;;;5.07;2.88;;;11.30;77.70;;;;;;4996118;28;20109;-93
2022/04/29 03:04:44;;;;;;;3.92;3.03;;;11.30;77.90;;;;;;4996498;28;20432;-93
2022/04/29 03:07:09;;;;;;;4.32;2.83;;;11.30;77.70;;;;;;4996059;28;20110;-94
2022/04/29 03:09:35;;;;;;;5.90;3.42;;;11.30;77.10;;;;;;4995872;28;20081;-93
2022/04/29 03:12:01;;;;;;;4.45;3.03;;;11.30;77.00;;;;;;4996216;28;20041;-94
2022/04/29 03:14:28;;;;;;;7.10;3.10;;;11.30;76.40;;;;;;4995801;28;20023;-93
2022/04/29 03:16:53;;;;;;;4.13;2.83;;;11.30;76.50;;;;;;4995794;28;20033;-93
2022/04/29 03:19:19;;;;;;;3.72;3.20;;;11.30;76.40;;;;;;4995934;28;20465;-92
2022/04/29 03:21:45;;;;;;;5.32;3.28;;;11.30;76.20;;;;;;4996147;28;20425;-94
2022/04/29 03:24:11;;;;;;;3.60;2.80;;;11.30;76.30;;;;;;4995875;28;20030;-94
2022/04/29 03:26:37;;;;;;;7.22;3.15;;;11.30;76.40;;;;;;4995703;28;20053;-93
2022/04/29 03:29:03;;;;;;;3.17;2.50;;;11.30;76.70;;;;;;4995732;28;20469;-92
2022/04/29 03:31:29;;;;;;;4.72;2.80;;;11.30;76.70;;;;;;4995544;28;20036;-93
2022/04/29 03:33:55;;;;;;;5.03;2.80;;;11.40;76.80;;;;;;4996426;28;20027;-94
2022/04/29 03:36:21;;;;;;;3.83;2.90;;;11.40;76.70;;;;;;4995373;28;20030;-93
2022/04/29 03:38:47;;;;;;;4.93;3.00;;;11.40;76.70;;;;;;4995488;28;20033;-93
2022/04/29 03:41:12;;;;;;;3.75;2.90;;;11.30;76.40;;;;;;4995364;28;20022;-95
2022/04/29 03:43:38;;;;;;;5.97;2.75;;;11.40;76.20;;;;;;4995454;28;20034;-93
2022/04/29 03:46:05;;;;;;;5.32;2.75;;;11.40;76.40;;;;;;4995689;28;20027;-94
2022/04/29 03:49:35;;;;;;;5.90;3.25;;;11.30;76.80;;;;;;4995123;28;20058;-94
2022/04/29 03:51:17;;;;;;;4.47;3.00;;;11.30;77.80;;;;;;4996293;28;20078;-95
2022/04/29 03:53:42;;;;;;;5.47;2.80;;;11.30;77.90;;;;;;4995325;28;20478;-94
2022/04/29 03:56:08;;;;;;;3.92;3.00;;;11.40;78.40;;;;;;4995107;28;20479;-94
2022/04/29 03:58:34;;;;;;;4.78;2.67;;;11.40;79.00;;;;;;4995049;28;20465;-94
2022/04/29 04:01:00;;;;;;;7.63;3.22;;;11.40;79.60;;;;;;4994861;28;20038;-95
2022/04/29 04:03:25;;;;;;;4.30;3.20;;;11.40;79.80;;;;;;4995140;28;20061;-95
2022/04/29 04:08:35;;;;;;;4.70;3.20;;;11.50;80.50;;;;;;5002437;28;20072;-94
2022/04/29 04:11:01;;;;;;;4.25;3.08;;;11.50;80.80;;;;;;5018812;28;20057;-94
2022/04/29 04:13:27;;;;;;;5.70;3.15;;;11.50;80.70;;;;;;5017708;28;20409;-94
2022/04/29 04:15:53;;;;;;;4.57;3.20;;;11.50;79.90;;;;;;5011790;28;20388;-94
2022/04/29 04:18:18;;;;;;;5.40;2.88;;;11.50;79.20;;;;;;5017619;28;20029;-92
2022/04/29 04:20:44;;;;;;;4.25;3.00;;;11.50;79.20;;;;;;5017825;28;20026;-94
2022/04/29 04:23:10;;;;;;;3.92;3.10;;;11.50;78.90;;;;;;5018825;28;20028;-93
2022/04/29 04:25:37;;;;;;;3.30;2.78;;;11.50;78.80;;;;;;5019304;28;20080;-94
2022/04/29 04:28:03;;;;;;;4.20;3.15;;;11.50;79.00;;;;;;5015666;28;20048;-96
2022/04/29 04:30:29;;;;;;;6.25;3.40;;;11.50;78.70;;;;;;4998324;28;20022;-96
2022/04/29 04:32:55;;;;;;;7.07;3.63;;;11.40;78.50;;;;;;4998070;28;20022;-95
2022/04/29 04:35:21;;;;;;;5.32;3.47;;;11.40;78.50;;;;;;4997536;28;20030;-94
2022/04/29 04:37:48;;;;;;;5.65;3.30;;;11.40;78.30;;;;;;4997828;28;20030;-96
2022/04/29 04:40:14;;;;;;;3.70;3.10;;;11.50;78.40;;;;;;4999624;28;20117;-96
2022/04/29 04:42:44;;;;;;;4.95;3.05;;;11.50;78.40;;;;;;4998986;28;20050;-96
2022/04/29 04:45:10;;;;;;;4.38;3.67;;;11.50;78.60;;;;;;4997515;28;20018;-96
2022/04/29 04:47:36;;;;;;;5.82;3.45;;;11.50;78.50;;;;;;4997328;28;20034;-96
2022/04/29 04:50:01;;;;;;;5.30;3.40;;;11.60;78.70;;;;;;4997209;28;20036;-95
2022/04/29 04:52:28;;;;;;;7.82;3.53;;;11.60;79.00;;;;;;4997513;28;20022;-95
2022/04/29 04:54:54;;;;;;;6.10;3.65;;;11.60;79.00;;;;;;4997507;28;20034;-96
2022/04/29 04:57:20;;;;;;;4.97;3.63;;;11.70;79.10;;;;;;4997450;28;20029;-96
2022/04/29 04:59:45;;;;;;;5.53;3.55;;;11.70;79.30;;;;;;4998083;28;20018;-96
2022/04/29 17:35:42;;;;;;;10.30;3.95;;;13.20;59.80;;;;;;5128202;27;20377;-87
2022/04/29 17:38:08;;;;;;;11.18;4.55;;;12.80;60.60;;;;;;5112254;28;20081;-87
2022/04/29 17:43:18;;;;;;;10.43;5.60;;;12.60;62.60;;;;;;5112649;28;20095;-88
2022/04/29 17:45:44;;;;;;;11.82;5.88;;;12.60;63.40;;;;;;5112250;28;20439;-88
2022/04/29 17:48:10;;;;;;;16.67;7.15;;;12.50;64.70;;;;;;5111991;28;20035;-87
2022/04/29 17:50:37;;;;;;;12.90;6.75;;;12.50;64.30;;;;;;5110763;28;20023;-88
2022/04/29 17:53:03;;;;;;;13.65;6.63;;;12.50;65.20;;;;;;5110792;28;20211;-90
2022/04/29 17:55:33;;;;;;;12.55;6.50;;;12.50;64.70;;;;;;5110109;28;20433;-86
2022/04/29 17:58:05;;;;;;;11.65;6.30;;;12.50;64.90;;;;;;5111948;28;20038;-90
2022/04/29 18:00:32;;;;;;;13.60;6.20;;;12.50;64.90;;;;;;5111122;28;20028;-90
2022/04/29 18:02:58;;;;;;;14.13;5.88;;;12.50;65.10;;;;;;5109772;28;20024;-88
2022/04/29 18:05:26;;;;;;;12.75;6.15;;;12.40;65.10;;;;;;5109996;28;20466;-90
2022/04/29 18:07:53;;;;;;;13.23;6.10;;;12.40;65.40;;;;;;5110177;28;20530;-89
2022/04/29 18:10:19;;;;;;;11.23;5.75;;;12.40;65.60;;;;;;5110063;28;20386;-89
2022/04/29 18:12:45;;;;;;;19.08;6.18;;;12.30;65.80;;;;;;5110353;28;20023;-89
2022/04/29 18:15:12;;;;;;;13.00;5.32;;;12.30;65.90;;;;;;5109794;28;20432;-89
2022/04/29 18:17:39;;;;;;;10.13;6.10;;;12.20;66.10;;;;;;5110165;28;20030;-89
2022/04/29 18:20:06;;;;;;;13.43;7.32;;;12.10;66.40;;;;;;5110540;28;20024;-89
2022/04/29 18:22:33;;;;;;;14.43;8.95;;;12.00;66.60;;;;;;5109699;28;20062;-89
2022/04/29 18:24:59;;;;;;;18.77;9.98;;;11.80;66.80;;;;;;5110896;28;20055;-90
2022/04/29 18:27:25;;;;;;;23.65;9.65;;;11.80;67.20;;;;;;5110341;28;20028;-90
2022/04/29 18:29:51;;;;;;;16.20;9.35;;;11.60;67.50;;;;;;5110351;28;20024;-89
2022/04/29 18:32:17;;;;;;;17.40;9.10;;;11.50;67.70;;;;;;5110136;28;20024;-90
2022/04/29 18:34:43;;;;;;;15.82;9.15;;;11.30;67.90;;;;;;5109763;28;20546;-90
2022/04/29 18:37:09;;;;;;;20.92;9.32;;;11.20;68.20;;;;;;5110048;28;20027;-90
2022/04/29 18:39:35;;;;;;;16.45;9.07;;;11.10;68.60;;;;;;5109859;28;20449;-91
2022/04/29 18:42:02;;;;;;;18.92;10.10;;;11.00;68.90;;;;;;5110125;28;20066;-91
2022/04/29 18:44:28;;;;;;;24.10;9.32;;;10.90;69.40;;;;;;5110141;28;20024;-91
2022/04/29 18:46:54;;;;;;;17.25;9.27;;;10.80;70.00;;;;;;5097270;28;20608;-91
2022/04/29 18:49:27;;;;;;;17.00;8.55;;;10.70;70.30;;;;;;5095658;28;20024;-91
2022/04/29 18:51:54;;;;;;;16.88;7.68;;;10.60;70.50;;;;;;5096594;28;20059;-91
2022/04/29 18:54:20;;;;;;;12.63;8.52;;;10.40;70.80;;;;;;5096296;28;20024;-91
2022/04/29 18:56:46;;;;;;;13.65;7.60;;;10.30;71.10;;;;;;5096124;28;20031;-91
2022/04/29 18:59:15;;;;;;;18.92;8.38;;;10.20;71.40;;;;;;5096129;28;20024;-92
2022/04/29 19:01:43;;;;;;;13.47;8.17;;;10.20;71.70;;;;;;5095900;28;20016;-92
2022/04/29 19:04:09;;;;;;;13.27;7.80;;;10.10;72.00;;;;;;5095808;28;20020;-92
2022/04/29 19:06:35;;;;;;;13.05;7.45;;;10.00;72.40;;;;;;5096245;28;20028;-92
2022/04/29 19:09:01;;;;;;;19.00;8.40;;;9.90;72.70;;;;;;5096029;28;20077;-91
2022/04/29 19:11:26;;;;;;;21.23;9.90;;;9.80;72.90;;;;;;5095824;28;20024;-92
2022/04/29 19:13:52;;;;;;;26.73;12.13;;;9.70;73.00;;;;;;5095630;28;20024;-92
2022/04/29 19:16:18;;;;;;;22.73;12.85;;;9.70;73.40;;;;;;5095754;28;20028;-93
2022/04/29 19:18:44;;;;;;;29.30;13.82;;;9.60;73.80;;;;;;5095769;28;20111;-92
2022/04/29 19:21:09;;;;;;;27.63;14.65;;;9.50;74.40;;;;;;5095626;28;20020;-91
2022/04/29 19:23:35;;;;;;;32.92;15.60;;;9.50;74.80;;;;;;5095981;28;20046;-92
2022/04/29 19:26:01;;;;;;;39.85;17.48;;;9.40;75.20;;;;;;5095719;28;20016;-92
2022/04/29 19:28:27;;;;;;;41.20;19.02;;;9.30;75.60;;;;;;5095629;28;20051;-93
2022/04/29 19:30:53;;;;;;;37.42;18.50;;;9.30;76.10;;;;;;5095659;28;20093;-93
2022/04/29 19:33:19;;;;;;;47.22;20.23;;;9.20;76.20;;;;;;5095108;28;20057;-92
2022/04/29 19:35:46;;;;;;;48.88;20.95;;;9.10;76.50;;;;;;5095363;28;20024;-92
2022/04/29 19:38:16;;;;;;;48.33;21.27;;;9.10;76.70;;;;;;5096573;28;20472;-92
2022/04/29 19:40:41;;;;;;;47.88;21.27;;;9.00;77.00;;;;;;5095183;28;20020;-92
2022/04/29 19:43:07;;;;;;;50.45;21.55;;;8.90;77.40;;;;;;5095143;28;20035;-95
2022/04/29 19:45:33;;;;;;;42.13;19.20;;;8.80;77.50;;;;;;5094961;28;20413;-95
2022/04/29 19:47:59;;;;;;;49.42;22.23;;;8.80;77.60;;;;;;5095086;28;20032;-94
2022/04/29 19:50:24;;;;;;;47.50;23.30;;;8.70;78.10;;;;;;5094897;28;20024;-91
2022/04/29 19:52:52;;;;;;;50.70;23.92;;;8.60;78.30;;;;;;5095290;28;20020;-90
2022/04/29 19:55:18;;;;;;;51.75;24.90;;;8.60;78.80;;;;;;5095165;28;20077;-91
2022/04/29 20:00:29;;;;;;;55.97;26.23;;;8.50;79.40;;;;;;5096142;28;20055;-91
2022/04/29 20:05:39;;;;;;;50.65;24.88;;;8.40;80.20;;;;;;5096223;28;20111;-92
2022/04/29 20:08:05;;;;;;;61.33;27.45;;;8.30;80.40;;;;;;5094614;28;20048;-91
2022/04/29 20:10:31;;;;;;;51.33;27.23;;;8.30;80.70;;;;;;5094185;28;20035;-91
2022/04/29 20:12:57;;;;;;;66.05;31.75;;;8.20;81.00;;;;;;5094463;28;20028;-91
2022/04/29 20:15:23;;;;;;;54.65;28.33;;;8.20;81.40;;;;;;5094403;28;20028;-92
2022/04/29 20:17:49;;;;;;;70.15;35.55;;;8.20;81.90;;;;;;5094659;28;20046;-91
2022/04/29 20:20:18;;;;;;;76.43;37.45;;;8.10;82.00;;;;;;5094376;28;20522;-92
2022/04/29 20:22:46;;;;;;;74.55;35.92;;;8.00;82.30;;;;;;5094415;28;20024;-91
2022/04/29 20:25:12;;;;;;;69.28;34.63;;;8.00;82.90;;;;;;5094285;28;20016;-91
2022/04/29 20:27:40;;;;;;;68.85;35.22;;;7.90;83.20;;;;;;5095221;28;20039;-92
2022/04/29 20:30:07;;;;;;;72.20;35.42;;;7.90;83.80;;;;;;5094145;28;20031;-92
2022/04/29 20:32:32;;;;;;;74.40;36.15;;;7.90;84.10;;;;;;5093987;28;20028;-91
2022/04/29 20:35:00;;;;;;;65.07;32.90;;;7.90;84.20;;;;;;5093982;28;20063;-92
2022/04/29 20:37:26;;;;;;;65.70;31.38;;;7.80;84.70;;;;;;5094112;28;20027;-92
2022/04/29 20:45:24;;;;;;;55.65;28.58;;;7.70;85.50;;;;;;5065759;28;20025;-91
2022/04/29 20:47:50;;;;;;;57.85;29.05;;;7.60;85.60;;;;;;5093950;28;20364;-92
2022/04/29 20:50:16;;;;;;;60.65;29.42;;;7.60;86.00;;;;;;5093855;28;20052;-91
2022/04/29 20:52:42;;;;;;;56.42;28.00;;;7.60;86.30;;;;;;5094068;28;20035;-92
2022/04/29 20:55:09;;;;;;;57.90;27.45;;;7.50;86.40;;;;;;5094082;28;20039;-92
2022/04/29 20:57:34;;;;;;;52.28;25.58;;;7.50;86.80;;;;;;5093870;28;20020;-91
2022/04/29 21:00:00;;;;;;;49.67;25.95;;;7.50;87.10;;;;;;5093786;28;20020;-91
2022/04/29 21:02:27;;;;;;;55.65;26.08;;;7.40;87.60;;;;;;5094247;28;20042;-91
2022/04/29 21:04:53;;;;;;;54.15;25.27;;;7.30;87.70;;;;;;5093734;28;20078;-92
2022/04/29 21:07:19;;;;;;;48.13;26.35;;;7.30;88.00;;;;;;5093694;28;20498;-92
2022/04/29 21:09:45;;;;;;;51.50;25.52;;;7.30;88.40;;;;;;5093377;28;20028;-92
2022/04/29 21:12:11;;;;;;;49.17;24.73;;;7.20;88.60;;;;;;5093663;28;20035;-92
2022/04/29 21:14:38;;;;;;;43.00;22.33;;;7.20;89.10;;;;;;5093507;28;20031;-92
2022/04/29 21:17:05;;;;;;;38.45;22.65;;;7.10;89.10;;;;;;5093614;28;20048;-92
2022/04/29 21:19:31;;;;;;;41.97;22.40;;;7.10;89.10;;;;;;5093586;28;20024;-92
2022/04/29 21:21:57;;;;;;;41.33;22.17;;;7.10;89.40;;;;;;5093661;28;20111;-92
2022/04/29 21:24:22;;;;;;;40.70;21.90;;;7.00;89.50;;;;;;5093750;28;20158;-92
2022/04/29 21:26:48;;;;;;;41.22;21.33;;;7.00;89.90;;;;;;5094349;28;20024;-92
2022/04/29 21:31:58;;;;;;;41.90;21.90;;;6.90;90.10;;;;;;5094722;28;20026;-92
2022/04/29 21:34:24;;;;;;;38.90;22.17;;;6.90;90.30;;;;;;5093122;28;20051;-92
2022/04/29 21:36:50;;;;;;;42.35;23.23;;;6.90;90.30;;;;;;5093400;28;20024;-92
2022/04/29 21:39:16;;;;;;;41.47;23.60;;;6.80;90.40;;;;;;5093370;28;20020;-92
2022/04/29 21:41:42;;;;;;;44.65;24.15;;;6.80;90.60;;;;;;5093485;28;20467;-92
2022/04/29 21:44:08;;;;;;;45.97;24.15;;;6.80;90.60;;;;;;5093266;28;20024;-92
2022/04/29 21:46:34;;;;;;;46.03;25.13;;;6.70;90.70;;;;;;5093202;28;20031;-92
2022/04/29 21:49:00;;;;;;;47.22;25.98;;;6.70;90.80;;;;;;5093863;28;20034;-92
2022/04/29 21:51:26;;;;;;;42.83;24.15;;;6.70;90.80;;;;;;5093115;28;20028;-92
2022/04/29 21:53:52;;;;;;;45.65;24.40;;;6.60;90.80;;;;;;5092827;28;20028;-92
2022/04/29 21:56:17;;;;;;;41.85;23.40;;;6.60;90.90;;;;;;5093324;28;20024;-92
2022/04/29 21:58:43;;;;;;;44.10;23.15;;;6.60;91.00;;;;;;5093030;28;20043;-92
2022/04/29 22:01:11;;;;;;;41.40;22.25;;;6.60;91.10;;;;;;5092969;28;20028;-92
2022/04/29 22:03:38;;;;;;;39.08;22.05;;;6.60;91.20;;;;;;5093149;28;20166;-92
2022/04/29 22:06:12;;;;;;;41.40;21.95;;;6.50;91.40;;;;;;5093149;28;20049;-92
2022/04/29 22:08:39;;;;;;;40.88;22.48;;;6.50;91.50;;;;;;5093154;28;20024;-92
2022/04/29 22:11:05;;;;;;;37.20;20.95;;;6.50;91.70;;;;;;5092985;28;20371;-92
2022/04/29 22:13:31;;;;;;;37.70;21.88;;;6.40;91.90;;;;;;5092941;28;20496;-92
2022/04/29 22:15:57;;;;;;;39.88;21.80;;;6.40;92.00;;;;;;5093009;28;20043;-92
2022/04/29 22:18:23;;;;;;;35.92;20.45;;;6.40;92.00;;;;;;5092966;28;20126;-92
2022/04/29 22:20:50;;;;;;;37.10;22.27;;;6.40;92.10;;;;;;5093567;28;20020;-92
2022/04/29 22:23:17;;;;;;;36.30;22.10;;;6.40;92.30;;;;;;5096848;28;20016;-92
2022/04/29 22:25:43;;;;;;;41.60;21.95;;;6.40;92.50;;;;;;5096838;28;20104;-92
2022/04/29 22:28:09;;;;;;;39.65;20.88;;;6.40;92.70;;;;;;5096668;28;20055;-91
2022/04/29 22:30:35;;;;;;;42.42;22.65;;;6.30;92.80;;;;;;5096588;28;20059;-91
2022/04/29 22:33:01;;;;;;;45.15;23.25;;;6.30;93.00;;;;;;5096604;28;20453;-91
2022/04/29 22:35:27;;;;;;;42.95;22.73;;;6.30;93.20;;;;;;5096230;28;20405;-92
2022/04/29 22:37:53;;;;;;;44.72;24.13;;;6.30;93.40;;;;;;5096430;28;20016;-92
2022/04/29 22:40:19;;;;;;;45.58;24.77;;;6.30;93.60;;;;;;5096403;28;20027;-92
2022/04/29 22:42:47;;;;;;;45.08;25.17;;;6.20;93.80;;;;;;5096278;28;20024;-92
2022/04/29 22:45:17;;;;;;;43.80;22.58;;;6.20;93.90;;;;;;5096431;28;20121;-92
2022/04/29 22:47:42;;;;;;;54.57;24.97;;;6.20;94.00;;;;;;5096264;28;20032;-92
2022/04/29 22:50:08;;;;;;;44.97;22.80;;;6.20;94.20;;;;;;5096237;28;20025;-92
2022/04/29 22:52:39;;;;;;;43.17;23.10;;;6.10;94.30;;;;;;5097552;28;20154;-92
2022/04/29 22:55:06;;;;;;;39.78;21.45;;;6.10;94.40;;;;;;5096270;28;20496;-91
2022/04/29 22:57:32;;;;;;;42.83;22.52;;;6.10;94.60;;;;;;5096063;28;20032;-92
2022/04/29 22:59:57;;;;;;;41.30;22.13;;;6.10;94.70;;;;;;5096172;28;20031;-91
2022/04/29 23:02:23;;;;;;;40.13;21.98;;;6.00;94.60;;;;;;5096047;28;20047;-92
2022/04/29 23:04:49;;;;;;;41.70;22.65;;;6.00;94.80;;;;;;5095929;28;20110;-92
2022/04/29 23:07:15;;;;;;;38.38;21.33;;;6.00;95.00;;;;;;5097014;28;20508;-91
2022/04/29 23:09:41;;;;;;;40.00;22.13;;;5.90;95.00;;;;;;5096776;28;20141;-92
2022/04/29 23:12:08;;;;;;;40.75;22.58;;;5.90;95.30;;;;;;5095926;28;20031;-92
2022/04/29 23:14:35;;;;;;;44.72;22.83;;;5.90;95.50;;;;;;5095808;28;20382;-92
2022/04/29 23:17:02;;;;;;;41.75;22.52;;;5.90;95.50;;;;;;5095685;28;20136;-92
2022/04/29 23:19:30;;;;;;;40.97;21.50;;;5.80;95.50;;;;;;5095652;28;20031;-92
2022/04/29 23:21:56;;;;;;;40.53;20.63;;;5.90;95.70;;;;;;5095924;28;20036;-92
2022/04/29 23:24:22;;;;;;;38.63;20.25;;;5.80;95.90;;;;;;5095892;28;20116;-92
2022/04/29 23:26:48;;;;;;;39.75;20.67;;;5.80;95.90;;;;;;5095754;28;20115;-91
2022/04/29 23:29:15;;;;;;;45.35;20.58;;;5.80;96.00;;;;;;5095371;28;20032;-92
2022/04/29 23:31:41;;;;;;;40.40;19.42;;;5.70;96.10;;;;;;5095340;28;20055;-93
2022/04/29 23:34:07;;;;;;;39.55;19.98;;;5.70;96.30;;;;;;5095110;28;20094;-92
2022/04/29 23:36:34;;;;;;;37.60;19.10;;;5.70;96.40;;;;;;5095791;28;20024;-92
2022/04/29 23:39:01;;;;;;;35.33;18.52;;;5.70;96.50;;;;;;5095348;28;20061;-91
2022/04/29 23:41:27;;;;;;;33.47;17.95;;;5.70;96.60;;;;;;5095244;28;20114;-91
2022/04/29 23:43:53;;;;;;;38.17;19.30;;;5.70;96.90;;;;;;5096310;28;20174;-92
2022/04/29 23:46:19;;;;;;;41.45;20.55;;;5.70;96.80;;;;;;5094967;28;20027;-92
2022/04/29 23:48:46;;;;;;;40.75;19.60;;;5.70;96.90;;;;;;5095273;28;20035;-92
2022/04/29 23:51:12;;;;;;;39.38;21.30;;;5.70;97.10;;;;;;5095108;28;20034;-92
2022/04/29 23:53:38;;;;;;;44.83;21.50;;;5.60;97.20;;;;;;5094934;28;20024;-91
2022/04/29 23:56:04;;;;;;;43.20;22.08;;;5.60;97.30;;;;;;5094827;28;20115;-92
2022/04/29 23:58:31;;;;;;;39.40;21.48;;;5.60;97.50;;;;;;5094931;28;20118;-92
